Time;durP1;ratioP1;P1;durP2;ratioP2;P2;SDS_P1;SDS_P2;PMS_P1;PMS_P2;Temp;Humidity;BMP_temperature;BMP_pressure;BME280_temperature;BME280_humidity;BME280_pressure;Samples;Min_cycle;Max_cycle;Signal;HPM_P1;HPM_P2
2021/08/21 00:00:52;;;;;;;2.40;1.58;;;18.00;77.20;;;;;;5116215;28;20062;-88
2021/08/21 00:03:18;;;;;;;2.15;1.67;;;17.90;77.20;;;;;;5097401;28;20101;-88
2021/08/21 00:05:43;;;;;;;2.60;1.70;;;17.90;77.80;;;;;;5116776;28;20020;-88
2021/08/21 00:08:09;;;;;;;2.38;1.73;;;17.90;77.60;;;;;;5117797;28;20499;-88
2021/08/21 00:10:35;;;;;;;2.15;1.60;;;17.90;77.70;;;;;;5098421;28;20491;-88
2021/08/21 00:13:01;;;;;;;2.45;2.00;;;17.80;77.80;;;;;;5097635;28;20123;-88
2021/08/21 00:15:27;;;;;;;2.45;2.00;;;17.90;78.00;;;;;;5097065;28;20046;-87
2021/08/21 00:17:54;;;;;;;2.75;1.70;;;17.80;78.10;;;;;;5096938;28;20023;-87
2021/08/21 00:20:20;;;;;;;4.47;1.85;;;17.80;78.10;;;;;;5097762;28;20034;-88
2021/08/21 00:22:46;;;;;;;2.78;1.83;;;17.80;78.20;;;;;;5097794;28;20023;-87
2021/08/21 00:25:13;;;;;;;3.08;2.03;;;17.80;78.40;;;;;;5096537;28;20071;-88
2021/08/21 00:27:41;;;;;;;2.00;1.80;;;17.80;78.50;;;;;;5097010;28;20441;-88
2021/08/21 00:30:07;;;;;;;2.13;1.60;;;17.70;78.10;;;;;;5096834;28;20028;-88
2021/08/21 00:32:33;;;;;;;3.15;1.80;;;17.70;78.40;;;;;;5097380;28;20519;-87
2021/08/21 00:34:59;;;;;;;3.80;1.77;;;17.70;78.70;;;;;;5097875;28;20417;-87
2021/08/21 00:37:24;;;;;;;2.17;1.80;;;17.70;78.80;;;;;;5097168;28;20114;-87
2021/08/21 00:39:50;;;;;;;2.50;1.50;;;17.60;78.80;;;;;;5096933;28;20489;-87
2021/08/21 00:42:16;;;;;;;2.20;1.63;;;17.60;79.50;;;;;;5096710;28;20024;-88
2021/08/21 00:44:42;;;;;;;3.10;2.00;;;17.60;78.50;;;;;;5096201;28;20399;-88
2021/08/21 00:47:10;;;;;;;2.38;1.83;;;17.60;78.70;;;;;;5093066;28;20019;-88
2021/08/21 00:49:38;;;;;;;2.35;1.80;;;17.60;78.90;;;;;;5115227;28;20114;-88
2021/08/21 00:52:05;;;;;;;3.38;1.85;;;17.60;78.90;;;;;;5096799;28;20027;-88
2021/08/21 00:54:31;;;;;;;3.03;1.80;;;17.60;78.90;;;;;;5096159;28;20023;-87
2021/08/21 00:57:00;;;;;;;2.75;1.75;;;17.60;79.70;;;;;;5095337;28;20480;-88
2021/08/21 00:59:35;;;;;;;2.97;1.90;;;17.60;79.30;;;;;;5096909;28;20038;-87
2021/08/21 01:02:02;;;;;;;2.38;1.50;;;17.60;79.20;;;;;;5115511;27;20024;-87
2021/08/21 01:04:30;;;;;;;3.00;1.75;;;17.60;79.00;;;;;;5095305;28;20070;-87
2021/08/21 01:06:55;;;;;;;2.55;1.85;;;17.50;79.00;;;;;;5096478;28;20051;-87
2021/08/21 01:09:21;;;;;;;2.17;1.58;;;17.50;79.50;;;;;;5115737;28;20058;-88
2021/08/21 01:11:47;;;;;;;3.00;1.90;;;17.60;79.80;;;;;;5096300;28;20028;-87
2021/08/21 01:14:13;;;;;;;1.92;1.60;;;17.50;79.10;;;;;;5115316;28;20034;-88
2021/08/21 01:16:39;;;;;;;3.30;1.63;;;17.50;79.20;;;;;;5098692;28;20446;-87
2021/08/21 01:19:06;;;;;;;3.17;1.85;;;17.50;79.40;;;;;;5096321;28;20047;-88
2021/08/21 01:21:32;;;;;;;3.58;1.80;;;17.50;79.60;;;;;;5095888;28;20035;-87
2021/08/21 01:23:57;;;;;;;2.33;1.60;;;17.40;79.90;;;;;;5095571;28;20036;-87
2021/08/21 01:26:23;;;;;;;2.47;1.90;;;17.50;79.90;;;;;;5096325;28;20559;-87
2021/08/21 01:28:49;;;;;;;2.53;1.92;;;17.50;80.00;;;;;;5130709;27;20035;-88
2021/08/21 01:31:15;;;;;;;2.35;1.50;;;17.50;80.00;;;;;;5114091;28;20066;-87
2021/08/21 01:33:41;;;;;;;2.30;1.80;;;17.50;79.60;;;;;;5095676;28;20547;-88
2021/08/21 01:36:07;;;;;;;2.95;1.90;;;17.50;79.40;;;;;;5114357;28;20034;-87
2021/08/21 01:38:32;;;;;;;3.03;1.80;;;17.50;80.00;;;;;;5114066;28;20047;-87
2021/08/21 01:40:58;;;;;;;2.42;2.00;;;17.50;79.50;;;;;;5096443;28;20480;-87
2021/08/21 01:43:24;;;;;;;2.38;1.90;;;17.40;79.50;;;;;;5095418;28;20112;-87
2021/08/21 01:45:50;;;;;;;2.85;1.70;;;17.40;79.70;;;;;;5114022;28;20032;-88
2021/08/21 01:48:16;;;;;;;2.33;1.80;;;17.40;79.80;;;;;;5095692;28;20110;-88
2021/08/21 01:50:42;;;;;;;3.05;1.75;;;17.40;80.40;;;;;;5095739;28;20034;-88
2021/08/21 01:53:17;;;;;;;3.28;1.70;;;17.50;80.00;;;;;;5095945;28;20020;-87
2021/08/21 01:55:46;;;;;;;2.70;1.90;;;17.50;80.10;;;;;;5095963;28;20067;-87
2021/08/21 01:58:20;;;;;;;3.53;1.75;;;17.40;79.70;;;;;;5095502;28;20541;-88
2021/08/21 02:00:46;;;;;;;2.42;1.63;;;17.40;79.80;;;;;;5113884;28;20031;-87
2021/08/21 02:03:13;;;;;;;3.90;1.60;;;17.40;79.80;;;;;;5113666;28;20034;-88
2021/08/21 02:05:39;;;;;;;2.63;1.95;;;17.40;79.90;;;;;;5095089;28;20039;-87
2021/08/21 02:08:05;;;;;;;2.00;1.50;;;17.40;79.90;;;;;;5114091;28;20365;-87
2021/08/21 02:10:30;;;;;;;2.50;1.50;;;17.40;80.10;;;;;;5095252;28;20111;-87
2021/08/21 02:12:56;;;;;;;2.58;1.80;;;17.40;81.00;;;;;;5095132;28;20434;-88
2021/08/21 02:15:22;;;;;;;2.20;1.45;;;17.40;79.90;;;;;;5094893;28;20063;-87
2021/08/21 02:17:48;;;;;;;3.72;1.90;;;17.30;79.80;;;;;;5094896;28;20138;-87
2021/08/21 02:20:14;;;;;;;2.75;1.90;;;17.30;80.00;;;;;;5095310;28;20959;-88
2021/08/21 02:22:44;;;;;;;3.10;1.67;;;17.30;79.80;;;;;;5095590;28;20042;-87
2021/08/21 02:25:12;;;;;;;2.80;1.80;;;17.20;79.90;;;;;;5093542;28;20499;-87
2021/08/21 02:27:41;;;;;;;3.38;1.50;;;17.20;79.90;;;;;;5113366;28;20027;-87
2021/08/21 02:30:08;;;;;;;2.45;1.63;;;17.20;80.00;;;;;;5094786;28;20035;-87
2021/08/21 02:32:33;;;;;;;1.67;1.40;;;17.20;80.00;;;;;;5095055;28;20119;-88
2021/08/21 02:34:59;;;;;;;2.25;1.55;;;17.20;80.40;;;;;;5095130;28;20114;-88
2021/08/21 02:37:26;;;;;;;1.80;1.48;;;17.20;80.30;;;;;;5094846;28;20070;-87
2021/08/21 02:39:52;;;;;;;2.15;1.92;;;17.10;80.40;;;;;;5094583;28;20028;-88
2021/08/21 02:42:18;;;;;;;2.25;1.65;;;17.10;80.20;;;;;;5094534;28;20035;-88
2021/08/21 02:44:44;;;;;;;2.65;1.58;;;17.10;80.20;;;;;;5094395;28;20067;-88
2021/08/21 02:47:10;;;;;;;2.45;1.60;;;17.10;80.30;;;;;;5095407;28;20055;-87
2021/08/21 02:49:36;;;;;;;2.65;1.73;;;17.10;80.70;;;;;;5094636;28;20062;-87
2021/08/21 02:52:02;;;;;;;2.67;1.60;;;17.10;80.60;;;;;;5095097;28;20369;-87
2021/08/21 02:54:28;;;;;;;1.92;1.35;;;17.10;80.30;;;;;;5095289;28;20412;-87
2021/08/21 02:56:54;;;;;;;2.85;1.63;;;17.00;80.50;;;;;;5095578;28;20034;-87
2021/08/21 02:59:20;;;;;;;2.42;1.58;;;17.00;80.60;;;;;;5096795;28;20490;-88
2021/08/21 03:01:46;;;;;;;3.08;1.60;;;17.00;80.80;;;;;;5096579;28;20023;-88
2021/08/21 03:04:12;;;;;;;3.33;1.80;;;17.00;80.60;;;;;;5095032;28;20044;-87
2021/08/21 03:06:38;;;;;;;2.30;1.65;;;17.00;80.50;;;;;;5095528;28;20019;-87
2021/08/21 03:09:03;;;;;;;4.85;1.95;;;17.10;80.60;;;;;;5095505;28;20506;-88
2021/08/21 03:11:29;;;;;;;2.72;1.73;;;17.00;81.80;;;;;;5096091;28;20419;-87
2021/08/21 03:13:55;;;;;;;2.33;1.65;;;17.00;80.90;;;;;;5114738;28;20036;-87
2021/08/21 03:16:20;;;;;;;2.67;2.00;;;17.00;80.90;;;;;;5095723;28;20051;-87
2021/08/21 03:18:46;;;;;;;1.88;1.52;;;17.00;81.10;;;;;;5112786;28;20052;-87
2021/08/21 03:21:12;;;;;;;2.95;2.10;;;16.90;81.20;;;;;;5095391;28;20026;-87
2021/08/21 03:23:38;;;;;;;3.47;1.83;;;17.00;81.60;;;;;;5095593;28;20036;-87
2021/08/21 03:26:04;;;;;;;4.00;1.95;;;17.00;81.40;;;;;;5096132;28;20126;-87
2021/08/21 03:28:30;;;;;;;3.97;2.08;;;16.90;81.20;;;;;;5114177;28;20076;-88
2021/08/21 03:30:56;;;;;;;2.58;1.80;;;17.00;81.40;;;;;;5095283;28;20513;-88
2021/08/21 03:33:22;;;;;;;3.90;1.90;;;16.80;81.40;;;;;;5094835;28;20511;-87
2021/08/21 03:35:48;;;;;;;3.50;2.00;;;16.80;81.50;;;;;;5094999;28;20016;-88
2021/08/21 03:38:14;;;;;;;3.33;1.88;;;16.80;81.30;;;;;;5095991;28;20035;-88
2021/08/21 03:40:39;;;;;;;3.28;1.85;;;16.80;81.40;;;;;;5095857;28;20024;-87
2021/08/21 03:43:05;;;;;;;2.63;1.88;;;16.70;81.20;;;;;;5094827;28;20081;-87
2021/08/21 03:45:31;;;;;;;4.18;2.05;;;16.70;81.70;;;;;;5113176;28;20085;-87
2021/08/21 03:47:56;;;;;;;2.45;1.70;;;16.70;81.90;;;;;;5094796;28;20051;-87
2021/08/21 03:50:22;;;;;;;3.03;1.85;;;16.70;81.70;;;;;;5094921;28;20062;-87
2021/08/21 03:52:47;;;;;;;2.55;1.80;;;16.70;81.60;;;;;;5095556;28;20020;-88
2021/08/21 03:55:14;;;;;;;3.40;1.75;;;16.60;81.50;;;;;;5095248;28;20486;-87
2021/08/21 03:57:40;;;;;;;4.25;2.10;;;16.60;81.70;;;;;;5094549;28;20107;-87
2021/08/21 04:00:07;;;;;;;2.75;1.90;;;16.60;81.90;;;;;;5113591;28;20047;-87
2021/08/21 04:02:33;;;;;;;2.63;2.10;;;16.60;82.10;;;;;;5094378;28;20099;-88
2021/08/21 04:04:59;;;;;;;3.00;1.90;;;16.60;81.70;;;;;;5095736;28;20036;-87
2021/08/21 04:07:24;;;;;;;3.40;2.45;;;16.60;82.40;;;;;;5095040;28;20035;-88
2021/08/21 04:09:50;;;;;;;3.03;2.22;;;16.60;82.60;;;;;;5094486;28;20061;-87
2021/08/21 04:12:18;;;;;;;3.53;2.10;;;16.70;82.50;;;;;;5094342;28;20391;-88
2021/08/21 04:14:44;;;;;;;3.67;2.30;;;16.70;82.30;;;;;;5113602;28;20472;-88
2021/08/21 04:17:10;;;;;;;2.63;2.10;;;16.70;82.10;;;;;;5094815;28;20108;-87
2021/08/21 04:19:35;;;;;;;4.97;2.25;;;16.70;82.30;;;;;;5074008;28;20072;-88
2021/08/21 04:22:01;;;;;;;3.25;2.00;;;16.70;82.40;;;;;;5073678;28;20543;-87
2021/08/21 04:24:27;;;;;;;2.75;1.90;;;16.70;82.90;;;;;;5081979;28;20119;-87
2021/08/21 04:26:52;;;;;;;3.25;1.80;;;16.70;82.60;;;;;;5071210;28;20027;-87
2021/08/21 04:29:18;;;;;;;3.75;1.92;;;16.70;82.40;;;;;;5071996;28;20127;-88
2021/08/21 04:31:44;;;;;;;3.65;2.05;;;16.70;82.30;;;;;;5074786;28;20485;-88
2021/08/21 04:34:09;;;;;;;3.95;2.13;;;16.70;82.80;;;;;;5074747;28;20475;-87
2021/08/21 04:36:35;;;;;;;2.60;2.08;;;16.80;82.60;;;;;;5074425;28;20070;-87
2021/08/21 04:39:01;;;;;;;3.72;1.85;;;16.70;82.40;;;;;;5074333;28;20073;-89
2021/08/21 04:41:26;;;;;;;3.35;1.92;;;16.80;82.20;;;;;;5076468;28;20500;-89
2021/08/21 04:43:52;;;;;;;2.22;1.98;;;16.80;82.50;;;;;;5075560;28;20036;-87
2021/08/21 04:46:17;;;;;;;2.92;2.05;;;16.80;82.60;;;;;;5074594;28;20028;-87
2021/08/21 04:48:43;;;;;;;3.53;2.13;;;16.80;82.30;;;;;;5076245;28;20083;-88
2021/08/21 04:51:09;;;;;;;2.40;1.80;;;16.80;82.40;;;;;;5074751;28;20028;-87
2021/08/21 04:53:34;;;;;;;2.97;2.13;;;16.80;82.70;;;;;;5074724;28;20123;-88
2021/08/21 04:56:00;;;;;;;3.90;2.00;;;16.70;82.00;;;;;;5075432;28;20039;-88
2021/08/21 04:58:26;;;;;;;3.17;1.83;;;16.80;82.50;;;;;;5074712;28;20400;-87
2021/08/21 05:00:51;;;;;;;3.47;2.00;;;16.80;82.20;;;;;;5076032;28;20031;-88
2021/08/21 05:03:17;;;;;;;3.72;2.20;;;16.80;83.20;;;;;;5074022;28;20033;-87
2021/08/21 05:05:44;;;;;;;3.22;2.40;;;16.80;82.60;;;;;;5075697;28;20025;-87
2021/08/21 05:08:10;;;;;;;4.18;2.20;;;16.80;82.50;;;;;;5074673;28;20366;-88
2021/08/21 05:10:35;;;;;;;2.22;1.90;;;16.80;83.20;;;;;;5073214;28;20048;-87
2021/08/21 05:13:01;;;;;;;4.55;2.13;;;16.80;82.60;;;;;;5074828;28;20134;-87
2021/08/21 05:15:27;;;;;;;3.45;2.25;;;16.80;82.50;;;;;;5072660;28;20082;-87
2021/08/21 05:17:55;;;;;;;4.38;2.05;;;16.80;82.50;;;;;;5073243;28;20055;-87
2021/08/21 05:20:40;;;;;;;3.20;1.98;;;16.80;82.30;;;;;;5075344;28;20056;-89
2021/08/21 05:23:08;;;;;;;2.78;2.22;;;16.80;82.20;;;;;;5074001;28;20116;-88
2021/08/21 05:25:42;;;;;;;3.15;1.90;;;16.80;82.60;;;;;;5073159;28;20056;-87
2021/08/21 05:28:12;;;;;;;3.22;2.05;;;16.80;82.60;;;;;;5072507;28;20105;-87
2021/08/21 05:30:40;;;;;;;2.90;2.20;;;16.80;82.80;;;;;;5072042;28;20028;-87
2021/08/21 05:33:16;;;;;;;3.95;1.90;;;16.80;82.80;;;;;;5071823;28;20396;-88
2021/08/21 05:35:43;;;;;;;3.55;2.13;;;16.80;82.80;;;;;;5058325;28;20111;-87
2021/08/21 05:38:09;;;;;;;4.50;1.95;;;16.90;82.90;;;;;;5073139;28;20021;-87
2021/08/21 05:40:35;;;;;;;3.13;2.10;;;17.00;82.90;;;;;;5073797;28;20405;-88
2021/08/21 05:43:01;;;;;;;2.70;2.25;;;17.00;82.90;;;;;;5072690;28;20032;-87
2021/08/21 05:45:27;;;;;;;5.25;2.30;;;17.00;82.70;;;;;;5066185;28;20039;-86
2021/08/21 05:47:54;;;;;;;4.43;2.45;;;17.00;83.00;;;;;;5073374;28;20020;-87
2021/08/21 05:50:21;;;;;;;2.67;1.92;;;17.00;82.70;;;;;;5095045;28;20053;-87
2021/08/21 05:52:47;;;;;;;2.55;1.85;;;17.00;82.90;;;;;;5072379;28;20507;-87
2021/08/21 05:55:13;;;;;;;2.58;1.95;;;17.10;82.70;;;;;;5072867;28;20033;-87
2021/08/21 05:57:39;;;;;;;3.83;2.47;;;17.10;83.00;;;;;;5070474;28;20051;-87
2021/08/21 06:00:06;;;;;;;3.42;2.13;;;17.10;83.30;;;;;;5071619;28;20039;-87
2021/08/21 06:02:32;;;;;;;4.28;2.30;;;17.10;82.90;;;;;;5071683;28;20051;-87
2021/08/21 06:04:57;;;;;;;3.40;2.17;;;17.10;83.10;;;;;;5071569;28;20501;-88
2021/08/21 06:07:23;;;;;;;5.10;2.60;;;17.10;83.00;;;;;;5099605;28;20390;-87
2021/08/21 06:09:49;;;;;;;3.10;2.28;;;17.20;83.20;;;;;;5070795;28;20060;-87
2021/08/21 06:12:15;;;;;;;3.92;2.20;;;17.20;82.90;;;;;;5099378;28;20051;-87
2021/08/21 06:14:41;;;;;;;3.95;2.30;;;17.30;82.80;;;;;;5070971;28;20028;-87
2021/08/21 06:17:08;;;;;;;3.72;2.60;;;17.30;82.80;;;;;;5071649;28;20021;-88
2021/08/21 06:19:34;;;;;;;4.50;2.50;;;17.30;82.90;;;;;;5118677;27;20055;-87
2021/08/21 06:22:02;;;;;;;3.72;2.30;;;17.30;82.60;;;;;;5091162;28;20020;-87
2021/08/21 06:24:28;;;;;;;2.63;2.15;;;17.30;82.70;;;;;;5091221;28;20389;-87
2021/08/21 06:26:54;;;;;;;4.03;2.53;;;17.30;82.90;;;;;;5090816;28;20141;-87
2021/08/21 06:29:19;;;;;;;3.22;2.42;;;17.30;82.70;;;;;;5091409;28;20089;-87
2021/08/21 06:31:46;;;;;;;2.50;2.30;;;17.30;82.70;;;;;;5091341;28;20377;-87
2021/08/21 06:34:12;;;;;;;2.63;2.38;;;17.30;82.50;;;;;;5091427;28;20020;-88
2021/08/21 06:36:37;;;;;;;3.03;2.30;;;17.30;83.50;;;;;;5091381;28;20523;-86
2021/08/21 06:39:03;;;;;;;3.13;2.45;;;17.40;82.70;;;;;;5091173;28;20492;-87
2021/08/21 06:41:29;;;;;;;4.05;3.30;;;17.40;82.60;;;;;;5090431;28;20044;-87
2021/08/21 06:43:55;;;;;;;4.22;2.78;;;17.40;82.40;;;;;;5091192;28;20040;-87
2021/08/21 06:46:21;;;;;;;2.55;2.10;;;17.40;82.30;;;;;;5091137;28;20028;-87
2021/08/21 06:48:47;;;;;;;3.58;2.40;;;17.40;82.40;;;;;;5090511;28;20135;-86
2021/08/21 06:51:13;;;;;;;3.50;2.60;;;17.50;82.40;;;;;;5090711;28;20568;-87
2021/08/21 06:53:40;;;;;;;3.95;2.85;;;17.50;82.30;;;;;;5090453;28;20107;-87
2021/08/21 06:56:06;;;;;;;3.88;2.58;;;17.50;82.20;;;;;;5089640;28;20016;-87
2021/08/21 06:58:32;;;;;;;4.30;2.42;;;17.50;82.10;;;;;;5090562;28;20226;-87
2021/08/21 07:00:57;;;;;;;3.05;2.03;;;17.50;82.10;;;;;;5091905;28;20460;-86
2021/08/21 07:03:23;;;;;;;3.08;2.72;;;17.40;83.00;;;;;;5085510;28;20093;-86
2021/08/21 07:05:50;;;;;;;3.85;2.72;;;17.40;82.10;;;;;;5090589;28;20032;-87
2021/08/21 07:08:16;;;;;;;2.92;2.42;;;17.40;82.10;;;;;;5091932;28;20016;-87
2021/08/21 07:10:41;;;;;;;2.80;2.30;;;17.50;82.10;;;;;;5091983;28;20047;-87
2021/08/21 07:13:07;;;;;;;3.95;2.70;;;17.50;82.10;;;;;;5090580;28;20449;-88
2021/08/21 07:15:33;;;;;;;2.85;2.20;;;17.50;82.10;;;;;;5092477;28;20480;-87
2021/08/21 07:18:02;;;;;;;3.17;2.40;;;17.50;82.00;;;;;;5086794;28;20115;-88
2021/08/21 07:20:28;;;;;;;3.63;2.80;;;17.50;81.90;;;;;;5077813;28;20039;-88
2021/08/21 07:22:54;;;;;;;3.55;2.78;;;17.50;81.70;;;;;;5082526;28;20484;-88
2021/08/21 07:25:19;;;;;;;4.82;2.50;;;17.50;81.70;;;;;;5070342;28;20482;-88
2021/08/21 07:27:45;;;;;;;4.93;2.80;;;17.50;81.60;;;;;;5072029;28;20029;-88
2021/08/21 07:30:11;;;;;;;3.72;2.55;;;17.50;81.70;;;;;;5066867;28;20029;-88
2021/08/21 07:32:36;;;;;;;3.47;2.33;;;17.50;81.70;;;;;;5070942;28;20027;-89
2021/08/21 07:35:03;;;;;;;3.42;2.78;;;17.50;81.70;;;;;;5071280;28;20036;-89
2021/08/21 07:37:30;;;;;;;4.10;2.90;;;17.50;81.90;;;;;;5072045;28;20079;-89
2021/08/21 07:39:56;;;;;;;4.50;2.97;;;17.50;81.70;;;;;;5072087;28;20056;-88
2021/08/21 07:42:22;;;;;;;4.47;3.15;;;17.50;82.00;;;;;;5104576;28;20114;-88
2021/08/21 07:44:48;;;;;;;3.72;3.33;;;17.40;82.20;;;;;;5071800;28;20067;-88
2021/08/21 07:47:14;;;;;;;4.32;3.03;;;17.40;82.10;;;;;;5072034;28;20098;-88
2021/08/21 07:49:40;;;;;;;5.85;3.83;;;17.40;82.50;;;;;;5072095;28;20475;-89
2021/08/21 07:52:05;;;;;;;8.23;4.03;;;17.50;82.70;;;;;;5077591;28;20020;-89
2021/08/21 07:54:31;;;;;;;6.40;4.20;;;17.50;82.60;;;;;;5080869;28;20542;-89
2021/08/21 07:57:29;;;;;;;5.10;3.53;;;17.40;83.10;;;;;;5072199;28;20091;-86
2021/08/21 07:59:55;;;;;;;9.10;5.68;;;17.40;83.40;;;;;;5082856;28;20055;-88
2021/08/21 08:02:21;;;;;;;11.50;7.40;;;17.40;83.30;;;;;;5071656;28;20033;-88
2021/08/21 08:04:46;;;;;;;6.90;4.72;;;17.50;83.30;;;;;;5071219;28;20028;-89
2021/08/21 08:07:12;;;;;;;8.07;4.45;;;17.40;83.00;;;;;;5074520;28;20058;-89
2021/08/21 08:09:38;;;;;;;37.17;20.23;;;17.40;83.10;;;;;;5074618;28;20119;-89
2021/08/21 08:12:03;;;;;;;9.20;5.93;;;17.40;83.60;;;;;;5074430;28;20020;-89
2021/08/21 08:14:29;;;;;;;5.93;4.60;;;17.50;83.60;;;;;;5074329;28;20028;-91
2021/08/21 08:16:55;;;;;;;8.45;5.82;;;17.50;83.40;;;;;;5075681;28;20039;-90
2021/08/21 08:19:20;;;;;;;5.60;4.45;;;17.50;83.60;;;;;;5072990;28;20056;-89
2021/08/21 08:21:46;;;;;;;7.05;4.35;;;17.50;83.70;;;;;;5074176;28;20038;-89
2021/08/21 08:24:24;;;;;;;5.28;4.18;;;17.50;83.60;;;;;;5073689;28;20042;-89
2021/08/21 08:26:50;;;;;;;5.22;3.47;;;17.40;83.60;;;;;;5060681;28;20024;-89
2021/08/21 08:29:15;;;;;;;6.00;3.67;;;17.40;83.80;;;;;;5074501;28;20420;-89
2021/08/21 08:31:41;;;;;;;5.10;3.83;;;17.30;84.30;;;;;;5074325;28;20548;-89
2021/08/21 08:34:07;;;;;;;5.97;3.90;;;17.20;84.80;;;;;;5073044;28;20032;-89
2021/08/21 08:36:32;;;;;;;4.90;3.78;;;17.10;86.70;;;;;;5075137;28;20071;-86
2021/08/21 08:38:58;;;;;;;6.65;4.07;;;17.10;85.90;;;;;;5073820;28;20163;-89
2021/08/21 08:41:24;;;;;;;4.63;3.47;;;17.10;86.60;;;;;;5074208;28;20066;-89
2021/08/21 08:43:50;;;;;;;4.95;3.40;;;17.20;86.30;;;;;;5075272;28;20479;-89
2021/08/21 08:46:20;;;;;;;4.90;3.78;;;17.20;86.60;;;;;;5074903;28;20033;-89
2021/08/21 08:48:46;;;;;;;4.47;3.33;;;17.20;86.40;;;;;;5075107;28;20032;-88
2021/08/21 08:51:12;;;;;;;3.80;3.10;;;17.20;86.20;;;;;;5074017;28;20024;-89
2021/08/21 08:53:38;;;;;;;4.45;3.60;;;17.20;87.90;;;;;;5073451;28;20036;-89
2021/08/21 08:56:04;;;;;;;4.53;2.92;;;17.20;86.50;;;;;;5074314;28;20021;-89
2021/08/21 08:58:30;;;;;;;4.13;2.95;;;17.30;86.70;;;;;;5073991;28;20036;-90
2021/08/21 09:00:56;;;;;;;4.28;3.28;;;17.30;87.00;;;;;;5072301;28;20035;-90
2021/08/21 09:03:23;;;;;;;4.35;3.50;;;17.30;87.20;;;;;;5074353;28;20060;-87
2021/08/21 09:05:50;;;;;;;5.43;3.38;;;17.30;86.80;;;;;;5074338;28;20078;-86
2021/08/21 09:08:27;;;;;;;5.25;3.17;;;17.40;87.10;;;;;;5073648;28;20029;-87
2021/08/21 09:10:58;;;;;;;5.63;3.42;;;17.40;86.30;;;;;;5073186;28;20033;-87
2021/08/21 09:13:24;;;;;;;3.67;2.90;;;17.40;86.70;;;;;;5074938;28;20040;-86
2021/08/21 09:15:58;;;;;;;5.07;3.10;;;17.40;87.00;;;;;;5074392;28;20021;-86
2021/08/21 09:18:28;;;;;;;6.75;3.45;;;17.40;87.10;;;;;;5072492;28;20078;-87
2021/08/21 09:20:58;;;;;;;4.18;3.33;;;17.40;87.30;;;;;;5073466;28;20047;-87
2021/08/21 09:23:28;;;;;;;4.32;3.28;;;17.50;87.40;;;;;;5073140;28;20507;-87
2021/08/21 09:26:06;;;;;;;3.97;3.17;;;17.50;86.90;;;;;;5072845;28;20048;-86
2021/08/21 09:28:32;;;;;;;5.18;3.42;;;17.60;87.40;;;;;;5074230;28;20099;-87
2021/08/21 09:31:04;;;;;;;4.20;3.00;;;17.60;87.50;;;;;;5075040;28;20025;-87
2021/08/21 09:33:30;;;;;;;3.33;2.58;;;17.60;87.00;;;;;;5074161;28;20029;-87
2021/08/21 09:35:57;;;;;;;5.63;2.97;;;17.60;87.50;;;;;;5072767;28;20382;-87
2021/08/21 09:38:26;;;;;;;4.18;2.70;;;17.60;87.30;;;;;;5074232;28;20557;-87
2021/08/21 09:41:00;;;;;;;3.90;3.08;;;17.60;87.20;;;;;;5072492;28;20029;-87
2021/08/21 09:43:31;;;;;;;4.38;3.13;;;17.60;86.80;;;;;;5073207;28;20055;-86
2021/08/21 09:46:11;;;;;;;3.75;2.58;;;17.60;87.20;;;;;;5074053;28;20489;-89
2021/08/21 09:48:59;;;;;;;3.53;2.50;;;17.60;88.10;;;;;;5062041;28;20028;-89
2021/08/21 09:51:36;;;;;;;5.05;3.00;;;17.60;87.10;;;;;;5075309;28;20051;-88
2021/08/21 09:54:04;;;;;;;3.63;2.90;;;17.60;87.10;;;;;;5072741;28;20127;-87
2021/08/21 09:56:37;;;;;;;4.25;2.80;;;17.70;87.50;;;;;;5073501;28;20108;-88
2021/08/21 09:59:03;;;;;;;;;;;17.70;87.50;;;;;;5073613;28;20039;-87
2021/08/21 10:01:29;;;;;;;3.65;2.22;;;17.80;86.80;;;;;;5072640;28;19908;-87
2021/08/21 10:03:56;;;;;;;3.08;2.38;;;17.90;87.20;;;;;;5072784;28;20417;-87
2021/08/21 10:06:23;;;;;;;4.43;2.35;;;17.80;86.90;;;;;;5073805;28;20009;-86
2021/08/21 10:08:54;;;;;;;3.05;2.00;;;17.80;86.60;;;;;;5072040;28;20452;-89
2021/08/21 10:11:20;;;;;;;4.05;2.33;;;17.90;87.30;;;;;;5069774;28;20027;-87
2021/08/21 10:13:47;;;;;;;4.32;2.20;;;17.90;87.40;;;;;;5072130;28;20040;-88
2021/08/21 10:16:14;;;;;;;2.20;1.90;;;17.90;87.20;;;;;;5069528;28;20094;-88
2021/08/21 10:18:42;;;;;;;2.70;2.20;;;17.90;86.80;;;;;;5070721;28;20068;-88
2021/08/21 10:21:08;;;;;;;2.85;2.17;;;17.90;87.10;;;;;;5068893;28;20024;-88
2021/08/21 10:23:40;;;;;;;4.70;2.47;;;17.90;87.10;;;;;;5071833;28;20052;-89
2021/08/21 10:26:34;;;;;;;2.92;2.42;;;17.90;86.90;;;;;;5073575;28;20025;-88
2021/08/21 10:29:01;;;;;;;4.68;2.72;;;17.90;86.80;;;;;;5069828;28;20032;-89
2021/08/21 10:31:40;;;;;;;6.10;2.70;;;17.90;87.40;;;;;;5073054;28;20457;-88
2021/08/21 10:34:08;;;;;;;4.45;2.47;;;18.00;86.90;;;;;;5078984;28;20067;-87
2021/08/21 10:36:48;;;;;;;3.30;2.38;;;18.00;87.40;;;;;;5072224;28;20024;-89
2021/08/21 10:39:14;;;;;;;5.88;3.30;;;18.00;87.50;;;;;;5073304;28;20439;-89
2021/08/21 10:41:40;;;;;;;3.20;2.53;;;18.10;87.40;;;;;;5071918;28;20111;-87
2021/08/21 10:44:06;;;;;;;4.93;3.30;;;18.20;87.20;;;;;;5073116;28;20120;-87
2021/08/21 10:46:31;;;;;;;5.43;3.33;;;18.20;88.00;;;;;;5071473;28;20469;-86
2021/08/21 10:48:58;;;;;;;12.43;6.95;;;18.30;87.80;;;;;;5072333;28;20035;-87
2021/08/21 10:51:39;;;;;;;13.45;7.60;;;18.40;87.60;;;;;;5072242;28;20469;-86
2021/08/21 10:54:27;;;;;;;8.20;5.72;;;18.50;87.50;;;;;;5071402;28;20054;-88
2021/08/21 10:56:58;;;;;;;6.25;3.50;;;18.70;87.40;;;;;;5071486;28;20020;-88
2021/08/21 10:59:44;;;;;;;4.45;3.38;;;18.90;87.20;;;;;;5072552;28;20196;-87
2021/08/21 11:02:33;;;;;;;4.55;3.10;;;19.10;87.30;;;;;;5052549;28;20025;-88
2021/08/21 11:05:03;;;;;;;3.70;2.60;;;19.20;86.80;;;;;;5068112;28;20055;-87
2021/08/21 11:07:37;;;;;;;4.00;2.60;;;19.30;86.10;;;;;;5072585;28;20024;-87
2021/08/21 11:10:23;;;;;;;3.90;2.22;;;19.50;86.40;;;;;;5105000;28;20032;-88
2021/08/21 11:12:52;;;;;;;3.42;2.35;;;19.60;86.10;;;;;;5072234;28;20039;-87
2021/08/21 11:15:22;;;;;;;3.55;2.40;;;19.70;85.50;;;;;;5070961;28;20024;-88
2021/08/21 11:17:51;;;;;;;3.50;2.38;;;19.80;85.00;;;;;;5076360;28;20039;-87
2021/08/21 11:20:32;;;;;;;3.97;2.40;;;19.90;85.10;;;;;;5113141;28;20368;-87
2021/08/21 11:23:06;;;;;;;2.90;1.92;;;20.00;84.90;;;;;;5111435;28;20035;-87
2021/08/21 11:25:33;;;;;;;4.63;2.30;;;20.00;84.90;;;;;;5113074;28;20031;-87
2021/08/21 11:28:07;;;;;;;2.65;2.13;;;20.20;85.00;;;;;;5094679;28;20027;-87
2021/08/21 11:30:37;;;;;;;2.45;1.77;;;20.30;84.50;;;;;;5112604;28;20139;-87
2021/08/21 11:33:12;;;;;;;3.00;2.10;;;20.30;84.20;;;;;;5094192;28;20167;-88
2021/08/21 11:35:53;;;;;;;3.30;2.17;;;20.40;84.50;;;;;;5094029;28;20038;-88
2021/08/21 11:38:33;;;;;;;3.22;2.00;;;20.40;84.20;;;;;;5075487;28;20035;-87
2021/08/21 11:41:11;;;;;;;3.22;2.28;;;20.50;83.50;;;;;;5118359;28;20149;-87
2021/08/21 11:43:41;;;;;;;2.30;1.88;;;20.60;83.80;;;;;;5100763;28;20027;-87
2021/08/21 11:46:07;;;;;;;3.15;2.00;;;20.70;83.70;;;;;;5100474;28;20144;-87
2021/08/21 11:48:35;;;;;;;2.75;1.75;;;20.70;83.60;;;;;;5119023;27;20055;-88
2021/08/21 11:51:02;;;;;;;2.30;1.70;;;20.80;83.20;;;;;;5119582;28;20115;-87
2021/08/21 11:53:40;;;;;;;2.28;1.80;;;20.80;83.20;;;;;;5119082;27;20016;-87
2021/08/21 11:56:05;;;;;;;2.65;1.80;;;20.80;82.90;;;;;;5120578;27;20036;-87
2021/08/21 11:58:46;;;;;;;2.47;1.90;;;20.90;83.40;;;;;;5135009;27;20492;-87
2021/08/21 12:01:13;;;;;;;2.22;1.60;;;21.20;84.10;;;;;;5118500;28;20019;-87
2021/08/21 12:06:30;;;;;;;;;;;21.50;81.80;;;;;;5118909;28;20016;-86
2021/08/21 12:09:10;;;;;;;2.72;1.88;;;21.60;82.40;;;;;;5104846;28;20371;-87
2021/08/21 12:11:39;;;;;;;2.22;1.55;;;21.50;81.10;;;;;;5118835;28;20027;-87
2021/08/21 12:14:05;;;;;;;2.85;1.70;;;21.40;81.00;;;;;;5100663;27;20395;-88
2021/08/21 12:16:33;;;;;;;3.17;1.85;;;21.30;81.00;;;;;;5118175;28;20031;-86
2021/08/21 12:18:59;;;;;;;2.63;2.00;;;21.20;81.30;;;;;;5118134;28;20488;-87
2021/08/21 12:21:25;;;;;;;2.47;2.00;;;21.20;81.80;;;;;;5118724;28;20028;-87
2021/08/21 12:23:54;;;;;;;2.70;1.88;;;21.20;82.00;;;;;;5098551;28;20512;-87
2021/08/21 12:26:46;;;;;;;2.35;1.75;;;21.20;81.70;;;;;;5119069;28;20023;-88
2021/08/21 12:29:30;;;;;;;2.33;1.60;;;21.10;81.60;;;;;;5100604;28;20031;-87
2021/08/21 12:31:57;;;;;;;2.63;1.70;;;21.00;81.70;;;;;;5100573;28;20035;-87
2021/08/21 12:34:24;;;;;;;2.25;1.77;;;21.10;81.60;;;;;;5098025;27;20143;-87
2021/08/21 12:36:51;;;;;;;2.50;1.75;;;21.20;82.40;;;;;;5118833;28;20024;-87
2021/08/21 12:39:27;;;;;;;2.70;1.67;;;21.20;81.50;;;;;;5118548;28;20030;-87
2021/08/21 12:42:05;;;;;;;3.33;1.92;;;21.20;81.70;;;;;;5099406;28;20504;-87
2021/08/21 12:44:36;;;;;;;1.98;1.75;;;21.10;81.40;;;;;;5118154;28;20480;-87
2021/08/21 12:47:03;;;;;;;2.85;2.03;;;20.90;81.00;;;;;;5100505;28;20020;-87
2021/08/21 12:49:29;;;;;;;2.17;1.58;;;20.80;82.00;;;;;;5099329;28;20100;-87
2021/08/21 12:51:57;;;;;;;2.20;1.70;;;20.80;81.70;;;;;;5115093;27;20484;-86
2021/08/21 12:54:42;;;;;;;1.60;1.30;;;20.70;81.80;;;;;;5096841;28;20027;-86